sensor_id;sensor_type;location;lat;lon;timestamp;P1;durP1;ratioP1;P2;durP2;ratioP2
54384;SDS011;40284;52.878;5.998;2023-07-02T00:02:20;17.30;;;8.13;;
54384;SDS011;40284;52.878;5.998;2023-07-02T00:04:46;20.67;;;9.13;;
54384;SDS011;40284;52.878;5.998;2023-07-02T00:07:12;27.77;;;8.95;;
54384;SDS011;40284;52.878;5.998;2023-07-02T00:09:39;17.38;;;8.55;;
54384;SDS011;40284;52.878;5.998;2023-07-02T00:12:06;27.65;;;9.43;;
54384;SDS011;40284;52.878;5.998;2023-07-02T00:14:32;23.05;;;8.48;;
54384;SDS011;40284;52.878;5.998;2023-07-02T00:16:58;18.35;;;8.40;;
54384;SDS011;40284;52.878;5.998;2023-07-02T00:19:24;22.88;;;9.40;;
54384;SDS011;40284;52.878;5.998;2023-07-02T00:21:51;20.27;;;9.10;;
54384;SDS011;40284;52.878;5.998;2023-07-02T00:24:18;22.05;;;8.25;;
54384;SDS011;40284;52.878;5.998;2023-07-02T00:26:45;24.10;;;8.77;;
54384;SDS011;40284;52.878;5.998;2023-07-02T00:29:11;20.33;;;9.15;;
54384;SDS011;40284;52.878;5.998;2023-07-02T00:31:37;18.35;;;8.63;;
54384;SDS011;40284;52.878;5.998;2023-07-02T00:34:03;18.67;;;8.73;;
54384;SDS011;40284;52.878;5.998;2023-07-02T00:36:29;22.50;;;8.55;;
54384;SDS011;40284;52.878;5.998;2023-07-02T00:38:56;24.10;;;9.18;;
54384;SDS011;40284;52.878;5.998;2023-07-02T00:41:23;22.33;;;8.77;;
54384;SDS011;40284;52.878;5.998;2023-07-02T00:43:49;27.08;;;8.15;;
54384;SDS011;40284;52.878;5.998;2023-07-02T00:46:19;24.08;;;8.65;;
54384;SDS011;40284;52.878;5.998;2023-07-02T00:48:50;21.27;;;8.25;;
54384;SDS011;40284;52.878;5.998;2023-07-02T00:51:22;25.90;;;8.45;;
54384;SDS011;40284;52.878;5.998;2023-07-02T00:53:49;21.60;;;8.30;;
54384;SDS011;40284;52.878;5.998;2023-07-02T00:56:16;23.50;;;10.32;;
54384;SDS011;40284;52.878;5.998;2023-07-02T00:58:43;24.63;;;8.85;;
54384;SDS011;40284;52.878;5.998;2023-07-02T01:01:15;20.00;;;8.63;;
54384;SDS011;40284;52.878;5.998;2023-07-02T01:06:22;27.75;;;9.80;;
54384;SDS011;40284;52.878;5.998;2023-07-02T01:08:50;25.17;;;9.13;;
54384;SDS011;40284;52.878;5.998;2023-07-02T01:11:17;25.20;;;9.63;;
54384;SDS011;40284;52.878;5.998;2023-07-02T01:13:45;19.50;;;8.90;;
54384;SDS011;40284;52.878;5.998;2023-07-02T01:16:11;27.27;;;9.85;;
54384;SDS011;40284;52.878;5.998;2023-07-02T01:18:37;23.52;;;9.55;;
54384;SDS011;40284;52.878;5.998;2023-07-02T01:21:06;27.50;;;9.57;;
54384;SDS011;40284;52.878;5.998;2023-07-02T01:23:33;26.40;;;9.15;;
54384;SDS011;40284;52.878;5.998;2023-07-02T01:25:59;24.80;;;9.10;;
54384;SDS011;40284;52.878;5.998;2023-07-02T01:28:33;25.48;;;9.43;;
54384;SDS011;40284;52.878;5.998;2023-07-02T01:31:00;28.58;;;9.73;;
54384;SDS011;40284;52.878;5.998;2023-07-02T01:33:26;22.42;;;10.32;;
54384;SDS011;40284;52.878;5.998;2023-07-02T01:35:52;21.25;;;9.27;;
54384;SDS011;40284;52.878;5.998;2023-07-02T01:38:18;23.52;;;9.50;;
54384;SDS011;40284;52.878;5.998;2023-07-02T01:40:44;27.50;;;10.63;;
54384;SDS011;40284;52.878;5.998;2023-07-02T01:43:10;27.20;;;11.30;;
54384;SDS011;40284;52.878;5.998;2023-07-02T01:45:37;21.27;;;10.13;;
54384;SDS011;40284;52.878;5.998;2023-07-02T01:48:03;28.42;;;10.23;;
54384;SDS011;40284;52.878;5.998;2023-07-02T01:50:29;26.52;;;10.40;;
54384;SDS011;40284;52.878;5.998;2023-07-02T01:52:55;25.83;;;9.75;;
54384;SDS011;40284;52.878;5.998;2023-07-02T01:55:21;33.33;;;10.88;;
54384;SDS011;40284;52.878;5.998;2023-07-02T01:57:48;23.65;;;10.60;;
54384;SDS011;40284;52.878;5.998;2023-07-02T02:00:14;28.23;;;11.15;;
54384;SDS011;40284;52.878;5.998;2023-07-02T02:02:41;30.27;;;9.95;;
54384;SDS011;40284;52.878;5.998;2023-07-02T02:05:07;29.25;;;10.82;;
54384;SDS011;40284;52.878;5.998;2023-07-02T02:07:35;26.10;;;10.07;;
54384;SDS011;40284;52.878;5.998;2023-07-02T02:10:02;29.70;;;9.88;;
54384;SDS011;40284;52.878;5.998;2023-07-02T02:12:28;32.80;;;11.23;;
54384;SDS011;40284;52.878;5.998;2023-07-02T02:14:55;25.45;;;8.85;;
54384;SDS011;40284;52.878;5.998;2023-07-02T02:17:21;25.55;;;10.38;;
54384;SDS011;40284;52.878;5.998;2023-07-02T02:19:48;29.08;;;9.13;;
54384;SDS011;40284;52.878;5.998;2023-07-02T02:22:15;26.00;;;9.18;;
54384;SDS011;40284;52.878;5.998;2023-07-02T02:24:41;30.23;;;9.98;;
54384;SDS011;40284;52.878;5.998;2023-07-02T02:27:07;34.55;;;10.82;;
54384;SDS011;40284;52.878;5.998;2023-07-02T02:29:34;32.63;;;9.95;;
54384;SDS011;40284;52.878;5.998;2023-07-02T02:32:00;28.70;;;10.32;;
54384;SDS011;40284;52.878;5.998;2023-07-02T02:34:26;25.10;;;9.05;;
54384;SDS011;40284;52.878;5.998;2023-07-02T02:36:53;23.70;;;9.88;;
54384;SDS011;40284;52.878;5.998;2023-07-02T02:39:20;25.48;;;9.38;;
54384;SDS011;40284;52.878;5.998;2023-07-02T02:41:46;30.77;;;9.80;;
54384;SDS011;40284;52.878;5.998;2023-07-02T02:44:12;18.60;;;8.80;;
54384;SDS011;40284;52.878;5.998;2023-07-02T02:46:38;20.85;;;9.07;;
54384;SDS011;40284;52.878;5.998;2023-07-02T02:49:04;29.40;;;11.52;;
54384;SDS011;40284;52.878;5.998;2023-07-02T02:51:30;27.02;;;10.82;;
54384;SDS011;40284;52.878;5.998;2023-07-02T02:53:56;24.85;;;9.45;;
54384;SDS011;40284;52.878;5.998;2023-07-02T02:56:23;32.95;;;10.55;;
54384;SDS011;40284;52.878;5.998;2023-07-02T02:58:49;32.72;;;9.25;;
54384;SDS011;40284;52.878;5.998;2023-07-02T03:01:15;35.85;;;10.48;;
54384;SDS011;40284;52.878;5.998;2023-07-02T03:03:41;24.42;;;9.38;;
54384;SDS011;40284;52.878;5.998;2023-07-02T03:06:10;24.30;;;9.35;;
54384;SDS011;40284;52.878;5.998;2023-07-02T03:08:36;23.63;;;9.05;;
54384;SDS011;40284;52.878;5.998;2023-07-02T03:11:02;24.20;;;9.30;;
54384;SDS011;40284;52.878;5.998;2023-07-02T03:13:28;31.52;;;9.68;;
54384;SDS011;40284;52.878;5.998;2023-07-02T03:15:54;25.98;;;8.55;;
54384;SDS011;40284;52.878;5.998;2023-07-02T03:18:20;29.05;;;10.43;;
54384;SDS011;40284;52.878;5.998;2023-07-02T03:20:46;24.38;;;9.07;;
54384;SDS011;40284;52.878;5.998;2023-07-02T03:23:12;28.38;;;10.50;;
54384;SDS011;40284;52.878;5.998;2023-07-02T03:25:39;25.27;;;9.35;;
54384;SDS011;40284;52.878;5.998;2023-07-02T03:28:05;25.88;;;8.90;;
54384;SDS011;40284;52.878;5.998;2023-07-02T03:30:31;22.05;;;8.38;;
54384;SDS011;40284;52.878;5.998;2023-07-02T03:32:57;23.95;;;9.32;;
54384;SDS011;40284;52.878;5.998;2023-07-02T03:35:23;25.38;;;9.32;;
54384;SDS011;40284;52.878;5.998;2023-07-02T03:37:49;25.33;;;8.82;;
54384;SDS011;40284;52.878;5.998;2023-07-02T03:40:15;26.63;;;8.93;;
54384;SDS011;40284;52.878;5.998;2023-07-02T03:42:42;21.17;;;9.45;;
54384;SDS011;40284;52.878;5.998;2023-07-02T03:45:09;23.15;;;9.73;;
54384;SDS011;40284;52.878;5.998;2023-07-02T03:47:35;25.40;;;9.45;;
54384;SDS011;40284;52.878;5.998;2023-07-02T03:50:01;20.98;;;8.65;;
54384;SDS011;40284;52.878;5.998;2023-07-02T03:52:27;21.00;;;8.77;;
54384;SDS011;40284;52.878;5.998;2023-07-02T03:54:53;23.70;;;8.77;;
54384;SDS011;40284;52.878;5.998;2023-07-02T03:57:19;29.10;;;9.68;;
54384;SDS011;40284;52.878;5.998;2023-07-02T03:59:46;25.33;;;9.68;;
54384;SDS011;40284;52.878;5.998;2023-07-02T04:02:12;29.77;;;9.60;;
54384;SDS011;40284;52.878;5.998;2023-07-02T04:04:38;24.05;;;8.40;;
54384;SDS011;40284;52.878;5.998;2023-07-02T04:07:04;23.83;;;8.40;;
54384;SDS011;40284;52.878;5.998;2023-07-02T04:09:30;27.38;;;9.40;;
54384;SDS011;40284;52.878;5.998;2023-07-02T04:11:58;30.25;;;9.57;;
54384;SDS011;40284;52.878;5.998;2023-07-02T04:14:24;30.23;;;8.57;;
54384;SDS011;40284;52.878;5.998;2023-07-02T04:16:50;24.85;;;8.20;;
54384;SDS011;40284;52.878;5.998;2023-07-02T04:19:16;28.08;;;8.32;;
54384;SDS011;40284;52.878;5.998;2023-07-02T04:21:42;29.20;;;8.80;;
54384;SDS011;40284;52.878;5.998;2023-07-02T04:24:08;24.83;;;8.90;;
54384;SDS011;40284;52.878;5.998;2023-07-02T04:26:34;26.58;;;8.80;;
54384;SDS011;40284;52.878;5.998;2023-07-02T04:29:02;21.92;;;8.00;;
54384;SDS011;40284;52.878;5.998;2023-07-02T04:31:28;24.38;;;9.20;;
54384;SDS011;40284;52.878;5.998;2023-07-02T04:33:54;18.10;;;7.85;;
54384;SDS011;40284;52.878;5.998;2023-07-02T04:36:20;28.10;;;9.65;;
54384;SDS011;40284;52.878;5.998;2023-07-02T04:38:46;27.13;;;8.20;;
54384;SDS011;40284;52.878;5.998;2023-07-02T04:41:12;23.60;;;8.43;;
54384;SDS011;40284;52.878;5.998;2023-07-02T04:43:38;19.92;;;7.95;;
54384;SDS011;40284;52.878;5.998;2023-07-02T04:46:04;22.02;;;8.20;;
54384;SDS011;40284;52.878;5.998;2023-07-02T04:48:32;24.08;;;9.32;;
54384;SDS011;40284;52.878;5.998;2023-07-02T04:50:59;18.55;;;7.75;;
54384;SDS011;40284;52.878;5.998;2023-07-02T04:53:25;27.52;;;8.52;;
54384;SDS011;40284;52.878;5.998;2023-07-02T04:55:51;25.33;;;8.23;;
54384;SDS011;40284;52.878;5.998;2023-07-02T04:58:17;24.75;;;8.30;;
54384;SDS011;40284;52.878;5.998;2023-07-02T05:00:43;18.08;;;8.82;;
54384;SDS011;40284;52.878;5.998;2023-07-02T05:03:09;26.20;;;9.63;;
54384;SDS011;40284;52.878;5.998;2023-07-02T05:05:35;21.40;;;8.40;;
54384;SDS011;40284;52.878;5.998;2023-07-02T05:08:01;22.08;;;7.65;;
54384;SDS011;40284;52.878;5.998;2023-07-02T05:10:29;23.30;;;8.48;;
54384;SDS011;40284;52.878;5.998;2023-07-02T05:12:55;28.98;;;9.30;;
54384;SDS011;40284;52.878;5.998;2023-07-02T05:15:23;23.55;;;7.95;;
54384;SDS011;40284;52.878;5.998;2023-07-02T05:17:49;22.13;;;8.15;;
54384;SDS011;40284;52.878;5.998;2023-07-02T05:20:15;27.73;;;8.88;;
54384;SDS011;40284;52.878;5.998;2023-07-02T05:22:41;24.55;;;8.68;;
54384;SDS011;40284;52.878;5.998;2023-07-02T05:25:07;22.13;;;8.52;;
54384;SDS011;40284;52.878;5.998;2023-07-02T05:27:33;24.17;;;7.13;;
54384;SDS011;40284;52.878;5.998;2023-07-02T05:29:59;22.13;;;7.43;;
54384;SDS011;40284;52.878;5.998;2023-07-02T05:32:25;23.10;;;7.85;;
54384;SDS011;40284;52.878;5.998;2023-07-02T05:34:51;23.63;;;8.05;;
54384;SDS011;40284;52.878;5.998;2023-07-02T05:37:17;18.42;;;7.70;;
54384;SDS011;40284;52.878;5.998;2023-07-02T05:39:44;30.17;;;8.68;;
54384;SDS011;40284;52.878;5.998;2023-07-02T05:42:10;22.00;;;7.80;;
54384;SDS011;40284;52.878;5.998;2023-07-02T05:44:36;21.30;;;7.82;;
54384;SDS011;40284;52.878;5.998;2023-07-02T05:47:02;25.73;;;9.00;;
54384;SDS011;40284;52.878;5.998;2023-07-02T05:49:28;19.92;;;7.80;;
54384;SDS011;40284;52.878;5.998;2023-07-02T05:51:54;21.15;;;7.32;;
54384;SDS011;40284;52.878;5.998;2023-07-02T05:54:21;20.55;;;7.93;;
54384;SDS011;40284;52.878;5.998;2023-07-02T05:56:47;16.15;;;6.70;;
54384;SDS011;40284;52.878;5.998;2023-07-02T05:59:13;20.27;;;7.00;;
54384;SDS011;40284;52.878;5.998;2023-07-02T06:01:43;23.17;;;7.30;;
54384;SDS011;40284;52.878;5.998;2023-07-02T06:04:09;19.33;;;7.35;;
54384;SDS011;40284;52.878;5.998;2023-07-02T06:06:35;23.75;;;8.18;;
54384;SDS011;40284;52.878;5.998;2023-07-02T06:09:01;21.70;;;7.85;;
54384;SDS011;40284;52.878;5.998;2023-07-02T06:11:28;19.02;;;6.97;;
54384;SDS011;40284;52.878;5.998;2023-07-02T06:13:54;21.77;;;7.65;;
54384;SDS011;40284;52.878;5.998;2023-07-02T06:16:20;19.10;;;7.43;;
54384;SDS011;40284;52.878;5.998;2023-07-02T06:18:46;18.63;;;6.50;;
54384;SDS011;40284;52.878;5.998;2023-07-02T06:21:12;24.63;;;7.63;;
54384;SDS011;40284;52.878;5.998;2023-07-02T06:23:39;19.38;;;6.90;;
54384;SDS011;40284;52.878;5.998;2023-07-02T06:26:06;16.88;;;7.53;;
54384;SDS011;40284;52.878;5.998;2023-07-02T06:28:32;21.38;;;7.38;;
54384;SDS011;40284;52.878;5.998;2023-07-02T06:30:58;20.38;;;6.32;;
54384;SDS011;40284;52.878;5.998;2023-07-02T06:33:24;18.10;;;7.00;;
54384;SDS011;40284;52.878;5.998;2023-07-02T06:35:50;20.80;;;7.43;;
54384;SDS011;40284;52.878;5.998;2023-07-02T06:38:16;21.15;;;7.45;;
54384;SDS011;40284;52.878;5.998;2023-07-02T06:40:42;19.02;;;6.65;;
54384;SDS011;40284;52.878;5.998;2023-07-02T06:43:09;22.27;;;7.13;;
54384;SDS011;40284;52.878;5.998;2023-07-02T06:45:35;14.23;;;5.95;;
54384;SDS011;40284;52.878;5.998;2023-07-02T06:48:01;19.58;;;6.53;;
54384;SDS011;40284;52.878;5.998;2023-07-02T06:50:27;13.68;;;5.47;;
54384;SDS011;40284;52.878;5.998;2023-07-02T06:52:53;14.15;;;5.07;;
54384;SDS011;40284;52.878;5.998;2023-07-02T06:55:19;15.40;;;5.15;;
54384;SDS011;40284;52.878;5.998;2023-07-02T06:57:45;16.08;;;5.75;;
54384;SDS011;40284;52.878;5.998;2023-07-02T07:00:12;18.90;;;5.93;;
54384;SDS011;40284;52.878;5.998;2023-07-02T07:02:38;15.30;;;4.68;;
54384;SDS011;40284;52.878;5.998;2023-07-02T07:05:05;12.25;;;4.45;;
54384;SDS011;40284;52.878;5.998;2023-07-02T07:07:31;18.58;;;5.45;;
54384;SDS011;40284;52.878;5.998;2023-07-02T07:09:57;16.35;;;5.55;;
54384;SDS011;40284;52.878;5.998;2023-07-02T07:12:23;15.30;;;6.10;;
54384;SDS011;40284;52.878;5.998;2023-07-02T07:14:49;15.02;;;4.65;;
54384;SDS011;40284;52.878;5.998;2023-07-02T07:17:15;16.75;;;4.82;;
54384;SDS011;40284;52.878;5.998;2023-07-02T07:19:41;9.57;;;4.47;;
54384;SDS011;40284;52.878;5.998;2023-07-02T07:22:07;14.13;;;5.63;;
54384;SDS011;40284;52.878;5.998;2023-07-02T07:24:33;14.13;;;4.68;;
54384;SDS011;40284;52.878;5.998;2023-07-02T07:26:59;12.20;;;4.10;;
54384;SDS011;40284;52.878;5.998;2023-07-02T07:29:26;12.80;;;4.28;;
54384;SDS011;40284;52.878;5.998;2023-07-02T07:31:52;8.75;;;3.85;;
54384;SDS011;40284;52.878;5.998;2023-07-02T07:34:18;12.52;;;3.53;;
54384;SDS011;40284;52.878;5.998;2023-07-02T07:36:44;11.68;;;4.88;;
54384;SDS011;40284;52.878;5.998;2023-07-02T07:39:10;12.32;;;3.83;;
54384;SDS011;40284;52.878;5.998;2023-07-02T07:41:36;12.70;;;3.97;;
54384;SDS011;40284;52.878;5.998;2023-07-02T07:44:02;9.90;;;3.13;;
54384;SDS011;40284;52.878;5.998;2023-07-02T07:46:28;17.48;;;4.20;;
54384;SDS011;40284;52.878;5.998;2023-07-02T07:48:54;14.52;;;3.83;;
54384;SDS011;40284;52.878;5.998;2023-07-02T07:51:20;13.02;;;4.18;;
54384;SDS011;40284;52.878;5.998;2023-07-02T07:53:46;14.68;;;4.93;;
54384;SDS011;40284;52.878;5.998;2023-07-02T07:56:12;16.85;;;5.70;;
54384;SDS011;40284;52.878;5.998;2023-07-02T07:58:38;13.80;;;4.18;;
54384;SDS011;40284;52.878;5.998;2023-07-02T08:01:04;9.18;;;4.25;;
54384;SDS011;40284;52.878;5.998;2023-07-02T08:03:30;11.85;;;4.88;;
54384;SDS011;40284;52.878;5.998;2023-07-02T08:05:56;14.45;;;4.65;;
54384;SDS011;40284;52.878;5.998;2023-07-02T08:08:23;13.93;;;5.05;;
54384;SDS011;40284;52.878;5.998;2023-07-02T08:10:49;18.80;;;5.35;;
54384;SDS011;40284;52.878;5.998;2023-07-02T08:13:15;12.85;;;5.05;;
54384;SDS011;40284;52.878;5.998;2023-07-02T08:15:42;10.23;;;4.60;;
54384;SDS011;40284;52.878;5.998;2023-07-02T08:18:08;16.08;;;5.05;;
54384;SDS011;40284;52.878;5.998;2023-07-02T08:20:36;13.05;;;5.07;;
54384;SDS011;40284;52.878;5.998;2023-07-02T08:23:02;11.07;;;4.32;;
54384;SDS011;40284;52.878;5.998;2023-07-02T08:25:29;10.45;;;4.93;;
54384;SDS011;40284;52.878;5.998;2023-07-02T08:27:55;13.25;;;4.32;;
54384;SDS011;40284;52.878;5.998;2023-07-02T08:30:22;18.23;;;5.07;;
54384;SDS011;40284;52.878;5.998;2023-07-02T08:32:48;19.88;;;5.40;;
54384;SDS011;40284;52.878;5.998;2023-07-02T08:35:14;13.93;;;5.65;;
54384;SDS011;40284;52.878;5.998;2023-07-02T08:37:40;17.92;;;5.35;;
54384;SDS011;40284;52.878;5.998;2023-07-02T08:40:14;19.77;;;5.88;;
54384;SDS011;40284;52.878;5.998;2023-07-02T08:42:41;14.20;;;5.20;;
54384;SDS011;40284;52.878;5.998;2023-07-02T08:45:07;19.75;;;5.00;;
54384;SDS011;40284;52.878;5.998;2023-07-02T08:47:33;14.30;;;5.10;;
54384;SDS011;40284;52.878;5.998;2023-07-02T08:49:59;12.57;;;5.07;;
54384;SDS011;40284;52.878;5.998;2023-07-02T08:52:26;14.18;;;5.82;;
54384;SDS011;40284;52.878;5.998;2023-07-02T08:54:52;12.90;;;4.38;;
54384;SDS011;40284;52.878;5.998;2023-07-02T08:57:18;13.70;;;4.75;;
54384;SDS011;40284;52.878;5.998;2023-07-02T08:59:46;14.40;;;5.05;;
54384;SDS011;40284;52.878;5.998;2023-07-02T09:02:14;17.83;;;4.97;;
54384;SDS011;40284;52.878;5.998;2023-07-02T09:04:40;16.98;;;4.65;;
54384;SDS011;40284;52.878;5.998;2023-07-02T09:07:07;13.43;;;4.18;;
54384;SDS011;40284;52.878;5.998;2023-07-02T09:09:44;14.75;;;4.32;;
54384;SDS011;40284;52.878;5.998;2023-07-02T09:14:53;14.38;;;4.93;;
54384;SDS011;40284;52.878;5.998;2023-07-02T09:17:20;11.68;;;3.83;;
54384;SDS011;40284;52.878;5.998;2023-07-02T09:19:50;12.18;;;4.28;;
54384;SDS011;40284;52.878;5.998;2023-07-02T09:22:16;12.43;;;4.60;;
54384;SDS011;40284;52.878;5.998;2023-07-02T09:24:50;13.30;;;5.32;;
54384;SDS011;40284;52.878;5.998;2023-07-02T09:27:17;12.23;;;4.28;;
54384;SDS011;40284;52.878;5.998;2023-07-02T09:29:43;15.13;;;5.75;;
54384;SDS011;40284;52.878;5.998;2023-07-02T09:32:09;15.27;;;5.00;;
54384;SDS011;40284;52.878;5.998;2023-07-02T09:34:36;13.85;;;4.53;;
54384;SDS011;40284;52.878;5.998;2023-07-02T09:37:03;13.38;;;5.28;;
54384;SDS011;40284;52.878;5.998;2023-07-02T09:39:34;22.75;;;5.40;;
54384;SDS011;40284;52.878;5.998;2023-07-02T09:42:01;13.02;;;5.00;;
54384;SDS011;40284;52.878;5.998;2023-07-02T09:44:27;16.17;;;4.65;;
54384;SDS011;40284;52.878;5.998;2023-07-02T09:49:27;17.92;;;5.07;;
54384;SDS011;40284;52.878;5.998;2023-07-02T09:51:57;15.95;;;4.03;;
54384;SDS011;40284;52.878;5.998;2023-07-02T09:54:24;16.80;;;5.53;;
54384;SDS011;40284;52.878;5.998;2023-07-02T09:56:50;13.27;;;4.68;;
54384;SDS011;40284;52.878;5.998;2023-07-02T09:59:16;12.32;;;4.15;;
54384;SDS011;40284;52.878;5.998;2023-07-02T10:01:43;11.68;;;4.47;;
54384;SDS011;40284;52.878;5.998;2023-07-02T10:04:12;15.75;;;4.20;;
54384;SDS011;40284;52.878;5.998;2023-07-02T10:09:11;11.77;;;4.15;;
54384;SDS011;40284;52.878;5.998;2023-07-02T10:11:37;13.88;;;4.78;;
54384;SDS011;40284;52.878;5.998;2023-07-02T10:14:03;12.32;;;4.85;;
54384;SDS011;40284;52.878;5.998;2023-07-02T10:16:29;10.38;;;3.92;;
54384;SDS011;40284;52.878;5.998;2023-07-02T10:19:09;13.40;;;4.03;;
54384;SDS011;40284;52.878;5.998;2023-07-02T10:21:35;12.48;;;4.32;;
54384;SDS011;40284;52.878;5.998;2023-07-02T10:24:08;11.35;;;4.28;;
54384;SDS011;40284;52.878;5.998;2023-07-02T10:29:00;15.70;;;4.65;;
54384;SDS011;40284;52.878;5.998;2023-07-02T10:31:27;9.73;;;4.20;;
54384;SDS011;40284;52.878;5.998;2023-07-02T10:33:53;14.63;;;4.50;;
54384;SDS011;40284;52.878;5.998;2023-07-02T10:36:20;15.15;;;4.57;;
54384;SDS011;40284;52.878;5.998;2023-07-02T10:38:47;16.00;;;4.60;;
54384;SDS011;40284;52.878;5.998;2023-07-02T10:41:22;14.80;;;4.90;;
54384;SDS011;40284;52.878;5.998;2023-07-02T10:43:49;13.18;;;4.88;;
54384;SDS011;40284;52.878;5.998;2023-07-02T10:46:19;14.00;;;5.05;;
54384;SDS011;40284;52.878;5.998;2023-07-02T10:48:54;17.13;;;4.38;;
54384;SDS011;40284;52.878;5.998;2023-07-02T10:51:20;16.60;;;5.45;;
54384;SDS011;40284;52.878;5.998;2023-07-02T10:53:56;14.65;;;4.32;;
54384;SDS011;40284;52.878;5.998;2023-07-02T10:56:23;14.38;;;4.50;;
54384;SDS011;40284;52.878;5.998;2023-07-02T10:58:50;10.73;;;4.20;;
54384;SDS011;40284;52.878;5.998;2023-07-02T11:03:55;8.77;;;4.05;;
54384;SDS011;40284;52.878;5.998;2023-07-02T11:06:21;12.82;;;4.20;;
54384;SDS011;40284;52.878;5.998;2023-07-02T11:08:47;11.10;;;3.40;;
54384;SDS011;40284;52.878;5.998;2023-07-02T11:11:13;10.45;;;4.63;;
54384;SDS011;40284;52.878;5.998;2023-07-02T11:13:43;12.65;;;3.35;;
54384;SDS011;40284;52.878;5.998;2023-07-02T11:16:44;10.10;;;3.53;;
54384;SDS011;40284;52.878;5.998;2023-07-02T11:19:07;10.38;;;3.03;;
54384;SDS011;40284;52.878;5.998;2023-07-02T11:21:33;8.25;;;3.35;;
54384;SDS011;40284;52.878;5.998;2023-07-02T11:24:03;8.00;;;3.13;;
54384;SDS011;40284;52.878;5.998;2023-07-02T11:26:36;8.35;;;3.13;;
54384;SDS011;40284;52.878;5.998;2023-07-02T11:31:28;10.10;;;3.30;;
54384;SDS011;40284;52.878;5.998;2023-07-02T11:33:54;12.65;;;3.30;;
54384;SDS011;40284;52.878;5.998;2023-07-02T11:36:21;9.25;;;2.67;;
54384;SDS011;40284;52.878;5.998;2023-07-02T11:38:49;9.60;;;3.33;;
54384;SDS011;40284;52.878;5.998;2023-07-02T11:41:15;8.68;;;2.95;;
54384;SDS011;40284;52.878;5.998;2023-07-02T11:43:42;7.28;;;2.78;;
54384;SDS011;40284;52.878;5.998;2023-07-02T11:46:08;6.72;;;2.78;;
54384;SDS011;40284;52.878;5.998;2023-07-02T11:48:34;9.68;;;2.85;;
54384;SDS011;40284;52.878;5.998;2023-07-02T11:51:00;10.57;;;3.28;;
54384;SDS011;40284;52.878;5.998;2023-07-02T11:53:26;6.03;;;2.72;;
54384;SDS011;40284;52.878;5.998;2023-07-02T11:55:52;8.60;;;3.40;;
54384;SDS011;40284;52.878;5.998;2023-07-02T11:58:18;10.38;;;3.78;;
54384;SDS011;40284;52.878;5.998;2023-07-02T12:00:44;8.55;;;3.15;;
54384;SDS011;40284;52.878;5.998;2023-07-02T12:03:10;8.88;;;3.70;;
54384;SDS011;40284;52.878;5.998;2023-07-02T12:05:37;11.60;;;3.88;;
54384;SDS011;40284;52.878;5.998;2023-07-02T12:08:03;11.48;;;4.90;;
54384;SDS011;40284;52.878;5.998;2023-07-02T12:10:29;14.65;;;3.75;;
54384;SDS011;40284;52.878;5.998;2023-07-02T12:12:56;10.63;;;4.13;;
54384;SDS011;40284;52.878;5.998;2023-07-02T12:15:22;9.48;;;3.83;;
54384;SDS011;40284;52.878;5.998;2023-07-02T12:17:48;9.60;;;4.10;;
54384;SDS011;40284;52.878;5.998;2023-07-02T12:20:14;12.23;;;5.18;;
54384;SDS011;40284;52.878;5.998;2023-07-02T12:22:40;13.70;;;4.28;;
54384;SDS011;40284;52.878;5.998;2023-07-02T12:25:06;12.63;;;4.20;;
54384;SDS011;40284;52.878;5.998;2023-07-02T12:27:32;10.38;;;4.20;;
54384;SDS011;40284;52.878;5.998;2023-07-02T12:29:58;12.40;;;5.20;;
54384;SDS011;40284;52.878;5.998;2023-07-02T12:32:25;14.35;;;5.57;;
54384;SDS011;40284;52.878;5.998;2023-07-02T12:34:51;14.98;;;5.45;;
54384;SDS011;40284;52.878;5.998;2023-07-02T12:37:17;10.00;;;4.88;;
54384;SDS011;40284;52.878;5.998;2023-07-02T12:39:44;10.70;;;4.97;;
54384;SDS011;40284;52.878;5.998;2023-07-02T12:42:10;12.55;;;5.43;;
54384;SDS011;40284;52.878;5.998;2023-07-02T12:44:36;14.40;;;5.30;;
54384;SDS011;40284;52.878;5.998;2023-07-02T12:47:02;12.20;;;5.28;;
54384;SDS011;40284;52.878;5.998;2023-07-02T12:49:28;12.52;;;5.03;;
54384;SDS011;40284;52.878;5.998;2023-07-02T12:51:54;12.38;;;5.57;;
54384;SDS011;40284;52.878;5.998;2023-07-02T12:54:20;17.40;;;6.53;;
54384;SDS011;40284;52.878;5.998;2023-07-02T12:56:46;11.82;;;5.35;;
54384;SDS011;40284;52.878;5.998;2023-07-02T12:59:14;13.15;;;5.00;;
54384;SDS011;40284;52.878;5.998;2023-07-02T13:01:40;12.43;;;5.60;;
54384;SDS011;40284;52.878;5.998;2023-07-02T13:04:06;14.15;;;5.78;;
54384;SDS011;40284;52.878;5.998;2023-07-02T13:06:32;11.90;;;4.68;;
54384;SDS011;40284;52.878;5.998;2023-07-02T13:09:05;14.98;;;5.15;;
54384;SDS011;40284;52.878;5.998;2023-07-02T13:11:31;11.40;;;4.78;;
54384;SDS011;40284;52.878;5.998;2023-07-02T13:13:57;10.40;;;5.05;;
54384;SDS011;40284;52.878;5.998;2023-07-02T13:16:24;10.63;;;5.07;;
54384;SDS011;40284;52.878;5.998;2023-07-02T13:18:50;9.10;;;4.30;;
54384;SDS011;40284;52.878;5.998;2023-07-02T13:21:16;14.10;;;5.40;;
54384;SDS011;40284;52.878;5.998;2023-07-02T13:23:42;13.32;;;4.95;;
54384;SDS011;40284;52.878;5.998;2023-07-02T13:26:08;12.02;;;4.60;;
54384;SDS011;40284;52.878;5.998;2023-07-02T13:28:34;13.10;;;4.50;;
54384;SDS011;40284;52.878;5.998;2023-07-02T13:31:00;12.73;;;5.03;;
54384;SDS011;40284;52.878;5.998;2023-07-02T13:33:27;14.73;;;5.13;;
54384;SDS011;40284;52.878;5.998;2023-07-02T13:35:54;14.07;;;5.53;;
54384;SDS011;40284;52.878;5.998;2023-07-02T13:38:20;12.43;;;5.90;;
54384;SDS011;40284;52.878;5.998;2023-07-02T13:40:46;12.05;;;5.07;;
54384;SDS011;40284;52.878;5.998;2023-07-02T13:43:12;11.18;;;4.93;;
54384;SDS011;40284;52.878;5.998;2023-07-02T13:45:39;12.27;;;5.22;;
54384;SDS011;40284;52.878;5.998;2023-07-02T13:48:05;10.13;;;5.10;;
54384;SDS011;40284;52.878;5.998;2023-07-02T13:50:31;11.00;;;5.00;;
54384;SDS011;40284;52.878;5.998;2023-07-02T13:52:57;13.43;;;4.88;;
54384;SDS011;40284;52.878;5.998;2023-07-02T13:55:23;11.40;;;4.80;;
54384;SDS011;40284;52.878;5.998;2023-07-02T13:57:53;8.82;;;4.43;;
54384;SDS011;40284;52.878;5.998;2023-07-02T14:00:20;13.18;;;5.28;;
54384;SDS011;40284;52.878;5.998;2023-07-02T14:02:47;11.93;;;4.63;;
54384;SDS011;40284;52.878;5.998;2023-07-02T14:05:13;14.25;;;5.05;;
54384;SDS011;40284;52.878;5.998;2023-07-02T14:07:39;12.75;;;5.45;;
54384;SDS011;40284;52.878;5.998;2023-07-02T14:10:05;8.60;;;4.63;;
54384;SDS011;40284;52.878;5.998;2023-07-02T14:12:31;21.83;;;5.05;;
54384;SDS011;40284;52.878;5.998;2023-07-02T14:14:57;12.55;;;4.22;;
54384;SDS011;40284;52.878;5.998;2023-07-02T14:17:23;12.27;;;4.28;;
54384;SDS011;40284;52.878;5.998;2023-07-02T14:19:49;6.97;;;4.07;;
54384;SDS011;40284;52.878;5.998;2023-07-02T14:22:16;9.20;;;4.90;;
54384;SDS011;40284;52.878;5.998;2023-07-02T14:24:42;12.73;;;5.57;;
54384;SDS011;40284;52.878;5.998;2023-07-02T14:27:08;13.98;;;5.03;;
54384;SDS011;40284;52.878;5.998;2023-07-02T14:29:34;8.80;;;4.78;;
54384;SDS011;40284;52.878;5.998;2023-07-02T14:32:00;11.70;;;4.97;;
54384;SDS011;40284;52.878;5.998;2023-07-02T14:34:26;10.32;;;4.63;;
54384;SDS011;40284;52.878;5.998;2023-07-02T14:36:52;11.20;;;4.22;;
54384;SDS011;40284;52.878;5.998;2023-07-02T14:39:19;8.63;;;3.90;;
54384;SDS011;40284;52.878;5.998;2023-07-02T14:41:45;7.78;;;4.70;;
54384;SDS011;40284;52.878;5.998;2023-07-02T14:44:11;9.02;;;4.35;;
54384;SDS011;40284;52.878;5.998;2023-07-02T14:46:38;12.18;;;4.75;;
54384;SDS011;40284;52.878;5.998;2023-07-02T14:49:04;9.70;;;5.00;;
54384;SDS011;40284;52.878;5.998;2023-07-02T14:51:30;12.80;;;4.63;;